sensor_id;sensor_type;location;lat;lon;timestamp;P1;durP1;ratioP1;P2;durP2;ratioP2
48161;SDS011;33950;48.154;16.316;2023-03-02T00:02:35;96.15;;;43.90;;
48161;SDS011;33950;48.154;16.316;2023-03-02T00:05:25;97.18;;;42.35;;
48161;SDS011;33950;48.154;16.316;2023-03-02T00:08:12;105.30;;;44.33;;
48161;SDS011;33950;48.154;16.316;2023-03-02T00:11:01;97.65;;;43.53;;
48161;SDS011;33950;48.154;16.316;2023-03-02T00:13:47;94.85;;;43.22;;
48161;SDS011;33950;48.154;16.316;2023-03-02T00:16:34;102.22;;;42.70;;
48161;SDS011;33950;48.154;16.316;2023-03-02T00:19:20;98.35;;;42.88;;
48161;SDS011;33950;48.154;16.316;2023-03-02T00:22:07;101.90;;;45.38;;
48161;SDS011;33950;48.154;16.316;2023-03-02T00:24:53;94.85;;;42.47;;
48161;SDS011;33950;48.154;16.316;2023-03-02T00:27:39;91.13;;;41.90;;
48161;SDS011;33950;48.154;16.316;2023-03-02T00:30:25;97.20;;;41.67;;
48161;SDS011;33950;48.154;16.316;2023-03-02T00:33:13;96.53;;;42.40;;
48161;SDS011;33950;48.154;16.316;2023-03-02T00:35:59;102.72;;;44.53;;
48161;SDS011;33950;48.154;16.316;2023-03-02T00:38:45;102.45;;;45.15;;
48161;SDS011;33950;48.154;16.316;2023-03-02T00:41:31;99.15;;;44.83;;
48161;SDS011;33950;48.154;16.316;2023-03-02T00:44:18;101.75;;;43.38;;
48161;SDS011;33950;48.154;16.316;2023-03-02T00:47:04;105.95;;;45.60;;
48161;SDS011;33950;48.154;16.316;2023-03-02T00:49:51;99.32;;;42.53;;
48161;SDS011;33950;48.154;16.316;2023-03-02T00:52:37;97.53;;;42.65;;
48161;SDS011;33950;48.154;16.316;2023-03-02T00:55:23;95.20;;;42.08;;
48161;SDS011;33950;48.154;16.316;2023-03-02T00:58:09;102.55;;;42.35;;
48161;SDS011;33950;48.154;16.316;2023-03-02T01:00:55;93.63;;;39.67;;
48161;SDS011;33950;48.154;16.316;2023-03-02T01:03:42;91.05;;;40.80;;
48161;SDS011;33950;48.154;16.316;2023-03-02T01:06:29;103.50;;;41.63;;
48161;SDS011;33950;48.154;16.316;2023-03-02T01:09:15;95.00;;;42.97;;
48161;SDS011;33950;48.154;16.316;2023-03-02T01:12:02;90.90;;;39.30;;
48161;SDS011;33950;48.154;16.316;2023-03-02T01:14:48;94.88;;;41.50;;
48161;SDS011;33950;48.154;16.316;2023-03-02T01:17:35;89.75;;;39.25;;
48161;SDS011;33950;48.154;16.316;2023-03-02T01:20:21;89.00;;;38.63;;
48161;SDS011;33950;48.154;16.316;2023-03-02T01:23:08;92.32;;;39.40;;
48161;SDS011;33950;48.154;16.316;2023-03-02T01:25:54;86.72;;;39.00;;
48161;SDS011;33950;48.154;16.316;2023-03-02T01:28:41;86.10;;;39.72;;
48161;SDS011;33950;48.154;16.316;2023-03-02T01:31:27;91.22;;;40.35;;
48161;SDS011;33950;48.154;16.316;2023-03-02T01:34:13;89.57;;;39.30;;
48161;SDS011;33950;48.154;16.316;2023-03-02T01:36:59;90.30;;;40.47;;
48161;SDS011;33950;48.154;16.316;2023-03-02T01:39:47;89.93;;;40.08;;
48161;SDS011;33950;48.154;16.316;2023-03-02T01:42:33;89.03;;;38.53;;
48161;SDS011;33950;48.154;16.316;2023-03-02T01:48:32;89.43;;;41.28;;
48161;SDS011;33950;48.154;16.316;2023-03-02T01:51:23;97.18;;;41.13;;
48161;SDS011;33950;48.154;16.316;2023-03-02T01:54:12;94.72;;;40.40;;
48161;SDS011;33950;48.154;16.316;2023-03-02T01:57:02;104.65;;;42.80;;
48161;SDS011;33950;48.154;16.316;2023-03-02T01:59:51;100.60;;;41.83;;
48161;SDS011;33950;48.154;16.316;2023-03-02T02:02:40;93.05;;;42.83;;
48161;SDS011;33950;48.154;16.316;2023-03-02T02:05:27;99.55;;;42.65;;
48161;SDS011;33950;48.154;16.316;2023-03-02T02:08:13;94.32;;;43.08;;
48161;SDS011;33950;48.154;16.316;2023-03-02T02:11:00;90.78;;;42.22;;
48161;SDS011;33950;48.154;16.316;2023-03-02T02:13:47;91.93;;;40.58;;
48161;SDS011;33950;48.154;16.316;2023-03-02T02:16:34;90.60;;;41.28;;
48161;SDS011;33950;48.154;16.316;2023-03-02T02:19:27;89.63;;;41.78;;
48161;SDS011;33950;48.154;16.316;2023-03-02T02:22:26;89.40;;;41.75;;
48161;SDS011;33950;48.154;16.316;2023-03-02T02:25:31;84.50;;;41.08;;
48161;SDS011;33950;48.154;16.316;2023-03-02T02:28:29;89.18;;;40.05;;
48161;SDS011;33950;48.154;16.316;2023-03-02T02:31:20;103.43;;;44.22;;
48161;SDS011;33950;48.154;16.316;2023-03-02T02:37:02;94.97;;;41.63;;
48161;SDS011;33950;48.154;16.316;2023-03-02T02:39:51;92.40;;;41.35;;
48161;SDS011;33950;48.154;16.316;2023-03-02T02:42:38;88.55;;;41.17;;
48161;SDS011;33950;48.154;16.316;2023-03-02T02:45:29;106.57;;;43.03;;
48161;SDS011;33950;48.154;16.316;2023-03-02T02:48:18;93.28;;;42.15;;
48161;SDS011;33950;48.154;16.316;2023-03-02T02:51:08;88.70;;;41.47;;
48161;SDS011;33950;48.154;16.316;2023-03-02T02:54:01;89.72;;;40.17;;
48161;SDS011;33950;48.154;16.316;2023-03-02T02:56:48;96.18;;;43.20;;
48161;SDS011;33950;48.154;16.316;2023-03-02T02:59:36;94.00;;;40.88;;
48161;SDS011;33950;48.154;16.316;2023-03-02T03:02:29;89.82;;;42.33;;
48161;SDS011;33950;48.154;16.316;2023-03-02T03:05:21;91.65;;;39.88;;
48161;SDS011;33950;48.154;16.316;2023-03-02T03:08:08;87.05;;;39.17;;
48161;SDS011;33950;48.154;16.316;2023-03-02T03:10:55;87.72;;;39.17;;
48161;SDS011;33950;48.154;16.316;2023-03-02T03:13:42;86.55;;;40.05;;
48161;SDS011;33950;48.154;16.316;2023-03-02T03:16:31;97.47;;;41.50;;
48161;SDS011;33950;48.154;16.316;2023-03-02T03:19:20;96.65;;;42.28;;
48161;SDS011;33950;48.154;16.316;2023-03-02T03:22:08;90.32;;;38.72;;
48161;SDS011;33950;48.154;16.316;2023-03-02T03:24:58;87.70;;;39.00;;
48161;SDS011;33950;48.154;16.316;2023-03-02T03:27:45;81.50;;;39.85;;
48161;SDS011;33950;48.154;16.316;2023-03-02T03:30:31;93.80;;;41.50;;
48161;SDS011;33950;48.154;16.316;2023-03-02T03:33:17;84.90;;;38.35;;
48161;SDS011;33950;48.154;16.316;2023-03-02T03:36:05;94.38;;;40.28;;
48161;SDS011;33950;48.154;16.316;2023-03-02T03:38:52;93.85;;;40.97;;
48161;SDS011;33950;48.154;16.316;2023-03-02T03:41:38;87.25;;;40.95;;
48161;SDS011;33950;48.154;16.316;2023-03-02T03:44:25;87.35;;;39.85;;
48161;SDS011;33950;48.154;16.316;2023-03-02T03:47:11;95.38;;;41.60;;
48161;SDS011;33950;48.154;16.316;2023-03-02T03:49:57;102.03;;;40.35;;
48161;SDS011;33950;48.154;16.316;2023-03-02T03:52:44;92.60;;;39.25;;
48161;SDS011;33950;48.154;16.316;2023-03-02T03:55:30;91.50;;;39.88;;
48161;SDS011;33950;48.154;16.316;2023-03-02T03:58:16;94.75;;;41.22;;
48161;SDS011;33950;48.154;16.316;2023-03-02T04:01:03;93.35;;;40.30;;
48161;SDS011;33950;48.154;16.316;2023-03-02T04:03:49;89.38;;;39.53;;
48161;SDS011;33950;48.154;16.316;2023-03-02T04:06:35;88.20;;;39.78;;
48161;SDS011;33950;48.154;16.316;2023-03-02T04:09:23;94.72;;;41.58;;
48161;SDS011;33950;48.154;16.316;2023-03-02T04:12:10;90.22;;;41.05;;
48161;SDS011;33950;48.154;16.316;2023-03-02T04:14:56;94.78;;;39.50;;
48161;SDS011;33950;48.154;16.316;2023-03-02T04:17:42;95.35;;;38.58;;
48161;SDS011;33950;48.154;16.316;2023-03-02T04:20:29;83.32;;;37.47;;
48161;SDS011;33950;48.154;16.316;2023-03-02T04:23:15;89.20;;;38.67;;
48161;SDS011;33950;48.154;16.316;2023-03-02T04:26:03;75.68;;;33.15;;
48161;SDS011;33950;48.154;16.316;2023-03-02T04:28:49;73.70;;;33.25;;
48161;SDS011;33950;48.154;16.316;2023-03-02T04:31:35;73.22;;;32.70;;
48161;SDS011;33950;48.154;16.316;2023-03-02T04:34:22;77.30;;;34.08;;
48161;SDS011;33950;48.154;16.316;2023-03-02T04:37:09;80.40;;;33.78;;
48161;SDS011;33950;48.154;16.316;2023-03-02T04:39:57;74.47;;;32.00;;
48161;SDS011;33950;48.154;16.316;2023-03-02T04:42:45;73.40;;;33.33;;
48161;SDS011;33950;48.154;16.316;2023-03-02T04:45:31;89.63;;;34.25;;
48161;SDS011;33950;48.154;16.316;2023-03-02T04:48:18;80.00;;;33.05;;
48161;SDS011;33950;48.154;16.316;2023-03-02T04:51:05;72.72;;;32.85;;
48161;SDS011;33950;48.154;16.316;2023-03-02T04:53:52;74.18;;;33.97;;
48161;SDS011;33950;48.154;16.316;2023-03-02T04:56:39;77.05;;;32.38;;
48161;SDS011;33950;48.154;16.316;2023-03-02T04:59:27;70.60;;;33.60;;
48161;SDS011;33950;48.154;16.316;2023-03-02T05:02:13;78.30;;;32.28;;
48161;SDS011;33950;48.154;16.316;2023-03-02T05:04:59;79.80;;;34.72;;
48161;SDS011;33950;48.154;16.316;2023-03-02T05:07:45;79.90;;;34.55;;
48161;SDS011;33950;48.154;16.316;2023-03-02T05:10:32;100.28;;;43.65;;
48161;SDS011;33950;48.154;16.316;2023-03-02T05:13:18;106.18;;;43.58;;
48161;SDS011;33950;48.154;16.316;2023-03-02T05:16:06;93.80;;;37.25;;
48161;SDS011;33950;48.154;16.316;2023-03-02T05:18:52;84.35;;;35.35;;
48161;SDS011;33950;48.154;16.316;2023-03-02T05:21:38;79.55;;;33.08;;
48161;SDS011;33950;48.154;16.316;2023-03-02T05:24:25;86.18;;;35.20;;
48161;SDS011;33950;48.154;16.316;2023-03-02T05:27:11;71.25;;;31.90;;
48161;SDS011;33950;48.154;16.316;2023-03-02T05:29:57;79.47;;;34.58;;
48161;SDS011;33950;48.154;16.316;2023-03-02T05:32:45;86.38;;;33.83;;
48161;SDS011;33950;48.154;16.316;2023-03-02T05:35:31;86.32;;;35.80;;
48161;SDS011;33950;48.154;16.316;2023-03-02T05:38:17;88.15;;;37.53;;
48161;SDS011;33950;48.154;16.316;2023-03-02T05:41:03;99.35;;;38.92;;
48161;SDS011;33950;48.154;16.316;2023-03-02T05:43:49;86.82;;;37.50;;
48161;SDS011;33950;48.154;16.316;2023-03-02T05:46:36;91.10;;;36.65;;
48161;SDS011;33950;48.154;16.316;2023-03-02T05:49:23;85.45;;;36.33;;
48161;SDS011;33950;48.154;16.316;2023-03-02T05:52:10;94.10;;;38.80;;
48161;SDS011;33950;48.154;16.316;2023-03-02T05:55:04;92.50;;;38.40;;
48161;SDS011;33950;48.154;16.316;2023-03-02T05:58:02;81.82;;;36.03;;
48161;SDS011;33950;48.154;16.316;2023-03-02T06:00:49;86.38;;;36.65;;
48161;SDS011;33950;48.154;16.316;2023-03-02T06:03:35;85.38;;;35.85;;
48161;SDS011;33950;48.154;16.316;2023-03-02T06:06:24;84.55;;;36.72;;
48161;SDS011;33950;48.154;16.316;2023-03-02T06:09:10;86.35;;;36.28;;
48161;SDS011;33950;48.154;16.316;2023-03-02T06:11:56;85.35;;;37.15;;
48161;SDS011;33950;48.154;16.316;2023-03-02T06:14:42;77.30;;;35.45;;
48161;SDS011;33950;48.154;16.316;2023-03-02T06:17:28;87.85;;;37.22;;
48161;SDS011;33950;48.154;16.316;2023-03-02T06:20:15;86.47;;;38.70;;
48161;SDS011;33950;48.154;16.316;2023-03-02T06:23:03;94.45;;;40.20;;
48161;SDS011;33950;48.154;16.316;2023-03-02T06:25:50;88.10;;;36.63;;
48161;SDS011;33950;48.154;16.316;2023-03-02T06:28:36;89.97;;;38.30;;
48161;SDS011;33950;48.154;16.316;2023-03-02T06:31:23;86.07;;;37.83;;
48161;SDS011;33950;48.154;16.316;2023-03-02T06:34:09;94.85;;;39.03;;
48161;SDS011;33950;48.154;16.316;2023-03-02T06:36:55;89.40;;;38.45;;
48161;SDS011;33950;48.154;16.316;2023-03-02T06:39:43;92.78;;;38.65;;
48161;SDS011;33950;48.154;16.316;2023-03-02T06:42:29;89.55;;;36.33;;
48161;SDS011;33950;48.154;16.316;2023-03-02T06:45:15;88.10;;;36.15;;
48161;SDS011;33950;48.154;16.316;2023-03-02T06:48:01;89.78;;;37.53;;
48161;SDS011;33950;48.154;16.316;2023-03-02T06:50:48;97.22;;;39.65;;
48161;SDS011;33950;48.154;16.316;2023-03-02T06:53:34;95.90;;;41.28;;
48161;SDS011;33950;48.154;16.316;2023-03-02T06:56:22;89.40;;;38.83;;
48161;SDS011;33950;48.154;16.316;2023-03-02T06:59:08;96.05;;;39.67;;
48161;SDS011;33950;48.154;16.316;2023-03-02T07:01:54;101.20;;;42.53;;
48161;SDS011;33950;48.154;16.316;2023-03-02T07:04:40;125.30;;;50.53;;
48161;SDS011;33950;48.154;16.316;2023-03-02T07:07:26;101.65;;;42.58;;
48161;SDS011;33950;48.154;16.316;2023-03-02T07:10:13;97.50;;;41.88;;
48161;SDS011;33950;48.154;16.316;2023-03-02T07:13:00;95.75;;;40.80;;
48161;SDS011;33950;48.154;16.316;2023-03-02T07:15:46;93.90;;;41.65;;
48161;SDS011;33950;48.154;16.316;2023-03-02T07:18:32;103.97;;;42.25;;
48161;SDS011;33950;48.154;16.316;2023-03-02T07:21:18;98.78;;;43.72;;
48161;SDS011;33950;48.154;16.316;2023-03-02T07:24:05;101.82;;;42.85;;
48161;SDS011;33950;48.154;16.316;2023-03-02T07:26:51;116.03;;;43.35;;
48161;SDS011;33950;48.154;16.316;2023-03-02T07:29:38;108.45;;;43.50;;
48161;SDS011;33950;48.154;16.316;2023-03-02T07:32:25;95.32;;;42.42;;
48161;SDS011;33950;48.154;16.316;2023-03-02T07:35:11;99.60;;;42.33;;
48161;SDS011;33950;48.154;16.316;2023-03-02T07:37:57;94.25;;;39.78;;
48161;SDS011;33950;48.154;16.316;2023-03-02T07:40:43;96.63;;;41.33;;
48161;SDS011;33950;48.154;16.316;2023-03-02T07:43:29;94.55;;;39.45;;
48161;SDS011;33950;48.154;16.316;2023-03-02T07:46:16;94.97;;;39.42;;
48161;SDS011;33950;48.154;16.316;2023-03-02T07:49:03;94.03;;;39.88;;
48161;SDS011;33950;48.154;16.316;2023-03-02T07:51:49;95.60;;;40.72;;
48161;SDS011;33950;48.154;16.316;2023-03-02T07:54:35;100.18;;;41.00;;
48161;SDS011;33950;48.154;16.316;2023-03-02T07:57:21;90.93;;;39.10;;
48161;SDS011;33950;48.154;16.316;2023-03-02T08:00:08;95.78;;;38.58;;
48161;SDS011;33950;48.154;16.316;2023-03-02T08:02:56;105.20;;;39.45;;
48161;SDS011;33950;48.154;16.316;2023-03-02T08:05:42;91.07;;;40.05;;
48161;SDS011;33950;48.154;16.316;2023-03-02T08:08:28;94.82;;;40.10;;
48161;SDS011;33950;48.154;16.316;2023-03-02T08:11:15;99.25;;;40.38;;
48161;SDS011;33950;48.154;16.316;2023-03-02T08:14:02;104.05;;;43.55;;
48161;SDS011;33950;48.154;16.316;2023-03-02T08:16:48;94.18;;;40.95;;
48161;SDS011;33950;48.154;16.316;2023-03-02T08:19:37;94.00;;;40.40;;
48161;SDS011;33950;48.154;16.316;2023-03-02T08:22:24;94.18;;;40.20;;
48161;SDS011;33950;48.154;16.316;2023-03-02T08:25:10;96.65;;;41.88;;
48161;SDS011;33950;48.154;16.316;2023-03-02T08:27:56;93.30;;;40.78;;
48161;SDS011;33950;48.154;16.316;2023-03-02T08:30:42;99.20;;;42.13;;
48161;SDS011;33950;48.154;16.316;2023-03-02T08:33:28;100.25;;;43.53;;
48161;SDS011;33950;48.154;16.316;2023-03-02T08:36:17;100.78;;;43.83;;
48161;SDS011;33950;48.154;16.316;2023-03-02T08:39:04;95.97;;;40.00;;
48161;SDS011;33950;48.154;16.316;2023-03-02T08:41:50;91.50;;;40.30;;
48161;SDS011;33950;48.154;16.316;2023-03-02T08:44:36;103.45;;;42.72;;
48161;SDS011;33950;48.154;16.316;2023-03-02T08:47:22;99.30;;;42.30;;
48161;SDS011;33950;48.154;16.316;2023-03-02T08:50:09;104.13;;;42.40;;
48161;SDS011;33950;48.154;16.316;2023-03-02T08:52:57;104.05;;;41.22;;
48161;SDS011;33950;48.154;16.316;2023-03-02T08:55:43;95.95;;;41.15;;
48161;SDS011;33950;48.154;16.316;2023-03-02T08:58:29;93.85;;;41.60;;
48161;SDS011;33950;48.154;16.316;2023-03-02T09:01:16;98.47;;;40.25;;
48161;SDS011;33950;48.154;16.316;2023-03-02T09:04:03;94.93;;;40.92;;
48161;SDS011;33950;48.154;16.316;2023-03-02T09:06:51;91.07;;;39.70;;
48161;SDS011;33950;48.154;16.316;2023-03-02T09:09:38;89.80;;;38.53;;
48161;SDS011;33950;48.154;16.316;2023-03-02T09:12:24;95.03;;;39.60;;
48161;SDS011;33950;48.154;16.316;2023-03-02T09:15:10;81.82;;;35.95;;
48161;SDS011;33950;48.154;16.316;2023-03-02T09:17:57;85.50;;;38.42;;
48161;SDS011;33950;48.154;16.316;2023-03-02T09:20:43;100.65;;;40.13;;
48161;SDS011;33950;48.154;16.316;2023-03-02T09:23:29;87.97;;;40.10;;
48161;SDS011;33950;48.154;16.316;2023-03-02T09:26:17;92.25;;;39.53;;
48161;SDS011;33950;48.154;16.316;2023-03-02T09:29:03;85.75;;;37.45;;
48161;SDS011;33950;48.154;16.316;2023-03-02T09:31:51;85.15;;;39.63;;
48161;SDS011;33950;48.154;16.316;2023-03-02T09:34:37;88.45;;;37.75;;
48161;SDS011;33950;48.154;16.316;2023-03-02T09:37:23;96.00;;;39.58;;
48161;SDS011;33950;48.154;16.316;2023-03-02T09:40:15;98.20;;;36.92;;
48161;SDS011;33950;48.154;16.316;2023-03-02T09:43:12;89.50;;;35.65;;
48161;SDS011;33950;48.154;16.316;2023-03-02T09:46:11;80.15;;;35.95;;
48161;SDS011;33950;48.154;16.316;2023-03-02T09:49:06;87.78;;;38.40;;
48161;SDS011;33950;48.154;16.316;2023-03-02T09:52:04;83.68;;;36.22;;
48161;SDS011;33950;48.154;16.316;2023-03-02T09:54:59;80.03;;;35.25;;
48161;SDS011;33950;48.154;16.316;2023-03-02T09:57:53;78.10;;;35.53;;
48161;SDS011;33950;48.154;16.316;2023-03-02T10:00:41;77.20;;;36.63;;
48161;SDS011;33950;48.154;16.316;2023-03-02T10:03:31;81.20;;;36.88;;
48161;SDS011;33950;48.154;16.316;2023-03-02T10:06:22;78.85;;;35.85;;
48161;SDS011;33950;48.154;16.316;2023-03-02T10:09:08;75.10;;;35.25;;
48161;SDS011;33950;48.154;16.316;2023-03-02T10:12:02;81.68;;;35.70;;
48161;SDS011;33950;48.154;16.316;2023-03-02T10:15:06;76.63;;;35.20;;
48161;SDS011;33950;48.154;16.316;2023-03-02T10:17:59;73.28;;;34.38;;
48161;SDS011;33950;48.154;16.316;2023-03-02T10:20:53;73.00;;;32.92;;
48161;SDS011;33950;48.154;16.316;2023-03-02T10:23:45;68.30;;;32.55;;
48161;SDS011;33950;48.154;16.316;2023-03-02T10:26:37;58.70;;;30.15;;
48161;SDS011;33950;48.154;16.316;2023-03-02T10:29:35;67.28;;;30.63;;
48161;SDS011;33950;48.154;16.316;2023-03-02T10:32:30;69.90;;;31.75;;
48161;SDS011;33950;48.154;16.316;2023-03-02T10:35:21;64.90;;;29.42;;
48161;SDS011;33950;48.154;16.316;2023-03-02T10:38:10;61.92;;;28.88;;
48161;SDS011;33950;48.154;16.316;2023-03-02T10:40:59;65.90;;;30.13;;
48161;SDS011;33950;48.154;16.316;2023-03-02T10:43:49;61.30;;;30.35;;
48161;SDS011;33950;48.154;16.316;2023-03-02T10:46:39;61.85;;;28.10;;
48161;SDS011;33950;48.154;16.316;2023-03-02T10:49:27;53.78;;;27.17;;
48161;SDS011;33950;48.154;16.316;2023-03-02T10:52:16;54.10;;;26.77;;
48161;SDS011;33950;48.154;16.316;2023-03-02T10:55:05;59.13;;;29.23;;
48161;SDS011;33950;48.154;16.316;2023-03-02T10:58:01;63.15;;;28.63;;
48161;SDS011;33950;48.154;16.316;2023-03-02T11:00:54;58.88;;;27.58;;
48161;SDS011;33950;48.154;16.316;2023-03-02T11:03:41;62.58;;;30.63;;
48161;SDS011;33950;48.154;16.316;2023-03-02T11:06:28;54.72;;;27.80;;
48161;SDS011;33950;48.154;16.316;2023-03-02T11:09:15;55.75;;;27.88;;
48161;SDS011;33950;48.154;16.316;2023-03-02T11:12:01;67.40;;;28.35;;
48161;SDS011;33950;48.154;16.316;2023-03-02T11:14:48;61.22;;;30.65;;
48161;SDS011;33950;48.154;16.316;2023-03-02T11:17:35;67.20;;;30.17;;
48161;SDS011;33950;48.154;16.316;2023-03-02T11:20:23;65.50;;;30.30;;
48161;SDS011;33950;48.154;16.316;2023-03-02T11:23:14;60.28;;;30.17;;
48161;SDS011;33950;48.154;16.316;2023-03-02T11:26:10;66.60;;;29.48;;
48161;SDS011;33950;48.154;16.316;2023-03-02T11:29:03;60.30;;;30.52;;
48161;SDS011;33950;48.154;16.316;2023-03-02T11:31:58;63.05;;;30.80;;
48161;SDS011;33950;48.154;16.316;2023-03-02T11:34:50;58.38;;;29.50;;
48161;SDS011;33950;48.154;16.316;2023-03-02T11:37:41;58.70;;;29.38;;
48161;SDS011;33950;48.154;16.316;2023-03-02T11:40:33;64.43;;;28.75;;
48161;SDS011;33950;48.154;16.316;2023-03-02T11:43:28;59.83;;;30.67;;
48161;SDS011;33950;48.154;16.316;2023-03-02T11:46:17;55.03;;;28.92;;
48161;SDS011;33950;48.154;16.316;2023-03-02T11:49:11;59.78;;;28.58;;
48161;SDS011;33950;48.154;16.316;2023-03-02T11:52:00;56.80;;;29.05;;
48161;SDS011;33950;48.154;16.316;2023-03-02T11:54:48;55.35;;;27.92;;
48161;SDS011;33950;48.154;16.316;2023-03-02T11:57:39;49.33;;;25.95;;
48161;SDS011;33950;48.154;16.316;2023-03-02T12:00:34;47.42;;;24.90;;
48161;SDS011;33950;48.154;16.316;2023-03-02T12:03:34;54.05;;;26.83;;
48161;SDS011;33950;48.154;16.316;2023-03-02T12:06:24;59.67;;;27.08;;
48161;SDS011;33950;48.154;16.316;2023-03-02T12:09:27;51.97;;;26.13;;
48161;SDS011;33950;48.154;16.316;2023-03-02T12:12:26;46.03;;;25.65;;
48161;SDS011;33950;48.154;16.316;2023-03-02T12:18:41;53.13;;;28.20;;
48161;SDS011;33950;48.154;16.316;2023-03-02T12:21:37;51.40;;;26.63;;
48161;SDS011;33950;48.154;16.316;2023-03-02T12:24:25;48.05;;;24.00;;
48161;SDS011;33950;48.154;16.316;2023-03-02T12:27:23;49.28;;;22.40;;
48161;SDS011;33950;48.154;16.316;2023-03-02T12:30:19;46.00;;;22.23;;
48161;SDS011;33950;48.154;16.316;2023-03-02T12:33:21;54.25;;;22.50;;
48161;SDS011;33950;48.154;16.316;2023-03-02T12:36:11;45.55;;;22.73;;
48161;SDS011;33950;48.154;16.316;2023-03-02T12:39:05;42.00;;;22.73;;
48161;SDS011;33950;48.154;16.316;2023-03-02T12:42:14;40.30;;;22.98;;
48161;SDS011;33950;48.154;16.316;2023-03-02T12:45:30;43.80;;;23.30;;
48161;SDS011;33950;48.154;16.316;2023-03-02T12:48:28;48.80;;;22.10;;
48161;SDS011;33950;48.154;16.316;2023-03-02T12:51:17;49.50;;;23.93;;
48161;SDS011;33950;48.154;16.316;2023-03-02T12:54:11;52.83;;;24.38;;
48161;SDS011;33950;48.154;16.316;2023-03-02T12:57:01;55.17;;;23.27;;
48161;SDS011;33950;48.154;16.316;2023-03-02T12:59:53;42.47;;;23.38;;
48161;SDS011;33950;48.154;16.316;2023-03-02T13:02:44;47.53;;;22.95;;
48161;SDS011;33950;48.154;16.316;2023-03-02T13:05:33;43.20;;;23.60;;
48161;SDS011;33950;48.154;16.316;2023-03-02T13:08:21;36.95;;;21.17;;
48161;SDS011;33950;48.154;16.316;2023-03-02T13:11:11;49.13;;;22.35;;
48161;SDS011;33950;48.154;16.316;2023-03-02T13:13:59;47.53;;;23.15;;
48161;SDS011;33950;48.154;16.316;2023-03-02T13:16:55;46.15;;;21.48;;
48161;SDS011;33950;48.154;16.316;2023-03-02T13:19:42;47.22;;;22.60;;
48161;SDS011;33950;48.154;16.316;2023-03-02T13:22:30;47.10;;;23.08;;
48161;SDS011;33950;48.154;16.316;2023-03-02T13:25:21;40.20;;;21.67;;
48161;SDS011;33950;48.154;16.316;2023-03-02T13:28:21;38.58;;;20.55;;
48161;SDS011;33950;48.154;16.316;2023-03-02T13:31:16;44.13;;;22.17;;
48161;SDS011;33950;48.154;16.316;2023-03-02T13:34:16;40.15;;;21.83;;
48161;SDS011;33950;48.154;16.316;2023-03-02T13:37:12;46.08;;;21.67;;
48161;SDS011;33950;48.154;16.316;2023-03-02T13:43:35;40.42;;;20.30;;
48161;SDS011;33950;48.154;16.316;2023-03-02T13:46:26;35.10;;;20.58;;
48161;SDS011;33950;48.154;16.316;2023-03-02T13:49:24;36.08;;;21.33;;
48161;SDS011;33950;48.154;16.316;2023-03-02T13:52:15;37.67;;;20.75;;
48161;SDS011;33950;48.154;16.316;2023-03-02T13:55:11;37.75;;;21.67;;
48161;SDS011;33950;48.154;16.316;2023-03-02T13:57:59;42.25;;;22.00;;
48161;SDS011;33950;48.154;16.316;2023-03-02T14:00:46;46.90;;;22.13;;
48161;SDS011;33950;48.154;16.316;2023-03-02T14:03:33;41.75;;;22.17;;
48161;SDS011;33950;48.154;16.316;2023-03-02T14:06:19;36.85;;;21.63;;
48161;SDS011;33950;48.154;16.316;2023-03-02T14:09:06;39.92;;;21.70;;
48161;SDS011;33950;48.154;16.316;2023-03-02T14:11:52;37.78;;;21.02;;
48161;SDS011;33950;48.154;16.316;2023-03-02T14:14:41;36.35;;;20.35;;
48161;SDS011;33950;48.154;16.316;2023-03-02T14:17:27;30.00;;;18.25;;
48161;SDS011;33950;48.154;16.316;2023-03-02T14:20:19;40.50;;;18.90;;
48161;SDS011;33950;48.154;16.316;2023-03-02T14:23:07;32.00;;;17.88;;
48161;SDS011;33950;48.154;16.316;2023-03-02T14:25:53;34.38;;;17.67;;
48161;SDS011;33950;48.154;16.316;2023-03-02T14:28:40;31.98;;;16.98;;
48161;SDS011;33950;48.154;16.316;2023-03-02T14:31:27;38.22;;;18.25;;
48161;SDS011;33950;48.154;16.316;2023-03-02T14:34:14;37.30;;;18.25;;
48161;SDS011;33950;48.154;16.316;2023-03-02T14:37:01;38.40;;;18.23;;
48161;SDS011;33950;48.154;16.316;2023-03-02T14:39:50;29.67;;;16.52;;
48161;SDS011;33950;48.154;16.316;2023-03-02T14:42:39;27.38;;;16.25;;
48161;SDS011;33950;48.154;16.316;2023-03-02T14:45:25;29.73;;;15.90;;
48161;SDS011;33950;48.154;16.316;2023-03-02T14:48:12;31.00;;;16.50;;
48161;SDS011;33950;48.154;16.316;2023-03-02T14:50:58;28.02;;;15.98;;
48161;SDS011;33950;48.154;16.316;2023-03-02T14:53:48;31.35;;;15.50;;
48161;SDS011;33950;48.154;16.316;2023-03-02T14:56:37;29.20;;;16.17;;
48161;SDS011;33950;48.154;16.316;2023-03-02T14:59:23;27.90;;;16.35;;
48161;SDS011;33950;48.154;16.316;2023-03-02T15:02:09;31.80;;;16.20;;
48161;SDS011;33950;48.154;16.316;2023-03-02T15:04:57;30.85;;;16.33;;
48161;SDS011;33950;48.154;16.316;2023-03-02T15:07:43;31.30;;;16.02;;
48161;SDS011;33950;48.154;16.316;2023-03-02T15:10:29;33.67;;;16.35;;
48161;SDS011;33950;48.154;16.316;2023-03-02T15:13:15;29.90;;;15.77;;
48161;SDS011;33950;48.154;16.316;2023-03-02T15:16:02;32.25;;;16.65;;
48161;SDS011;33950;48.154;16.316;2023-03-02T15:18:48;32.58;;;16.27;;
48161;SDS011;33950;48.154;16.316;2023-03-02T15:21:36;33.65;;;16.25;;
48161;SDS011;33950;48.154;16.316;2023-03-02T15:24:25;36.60;;;15.27;;
48161;SDS011;33950;48.154;16.316;2023-03-02T15:27:11;32.65;;;16.85;;
48161;SDS011;33950;48.154;16.316;2023-03-02T15:29:58;25.23;;;14.60;;
48161;SDS011;33950;48.154;16.316;2023-03-02T15:32:44;26.13;;;14.75;;
48161;SDS011;33950;48.154;16.316;2023-03-02T15:35:30;27.80;;;15.38;;
48161;SDS011;33950;48.154;16.316;2023-03-02T15:38:17;31.90;;;15.20;;
48161;SDS011;33950;48.154;16.316;2023-03-02T15:41:04;25.63;;;13.50;;
48161;SDS011;33950;48.154;16.316;2023-03-02T15:43:50;25.20;;;13.25;;
48161;SDS011;33950;48.154;16.316;2023-03-02T15:46:37;29.33;;;14.93;;
48161;SDS011;33950;48.154;16.316;2023-03-02T15:49:23;24.80;;;13.70;;
48161;SDS011;33950;48.154;16.316;2023-03-02T15:52:12;31.65;;;13.57;;
48161;SDS011;33950;48.154;16.316;2023-03-02T15:55:00;27.67;;;13.70;;
48161;SDS011;33950;48.154;16.316;2023-03-02T15:57:46;24.02;;;12.90;;
48161;SDS011;33950;48.154;16.316;2023-03-02T16:00:32;29.10;;;14.52;;
48161;SDS011;33950;48.154;16.316;2023-03-02T16:03:22;39.35;;;17.17;;
48161;SDS011;33950;48.154;16.316;2023-03-02T16:06:08;33.20;;;14.88;;
48161;SDS011;33950;48.154;16.316;2023-03-02T16:08:54;27.48;;;14.57;;
48161;SDS011;33950;48.154;16.316;2023-03-02T16:11:42;26.15;;;13.20;;
48161;SDS011;33950;48.154;16.316;2023-03-02T16:14:28;22.10;;;13.00;;
48161;SDS011;33950;48.154;16.316;2023-03-02T16:17:14;30.95;;;14.35;;
48161;SDS011;33950;48.154;16.316;2023-03-02T16:20:03;27.13;;;14.13;;
48161;SDS011;33950;48.154;16.316;2023-03-02T16:22:50;26.67;;;14.95;;
48161;SDS011;33950;48.154;16.316;2023-03-02T16:25:37;32.90;;;14.50;;